Blue Vision — MRNB — position and weather

sailwx.info

Track history (hours):
 
Tides and Currents Weather Stations Pressure Air Temp Water Temp Dewpoint Dewpoint Depression Visibility Wind Speed Wind Dir Waves Ship Positions

Blue Vision

Last reported at 2014-Jul-31 10:27 UTC. Time now 2014-Jul-31 11:38 UTC.
Position N 38°46' E 001°26'.

Length 45 m; draft 3 m.

Type: Pleasure craft. MMSI: 235054475.

Date/timePositionNaut miles runAvg speedWind from/ knotsBaromVisibWave heightAir tempDewpointWater temp
2014-Jul-31 10:27N 38°46' E 001°26'9 0.5
2014-Jul-30 17:30N 38°55' E 001°28'9 8.4
2014-Jul-30 16:26N 38°46' E 001°26'24 1.5
2014-Jul-30 00:31N 39°04' E 001°46'1111.9
2014-Jul-29 23:33N 39°12' E 001°57'1211.9
2014-Jul-29 22:33N 39°20' E 002°08'1211.7
2014-Jul-29 21:33N 39°28' E 002°20'6 2.0
2014-Jul-29 18:30N 39°32' E 002°25'0 0.0
2014-Jul-29 17:24N 39°32' E 002°25'0 0.0
2014-Jul-29 16:24N 39°32' E 002°25'0 0.0
2014-Jul-29 14:18N 39°32' E 002°25'0 0.0
2014-Jul-29 10:21N 39°32' E 002°25'7 9.2
2014-Jul-29 09:33N 39°28' E 002°33'7 6.4
2014-Jul-29 08:31N 39°33' E 002°39'3 3.5
2014-Jul-29 07:34N 39°31' E 002°42'4 4.2
2014-Jul-29 06:33N 39°34' E 002°38'0 0.2
2014-Jul-29 05:32N 39°34' E 002°38'0 0.0
2014-Jul-29 04:32N 39°34' E 002°38'0 0.0
2014-Jul-29 03:32N 39°34' E 002°38'0 0.0
2014-Jul-29 02:32N 39°34' E 002°38'0 0.0
2014-Jul-29 01:31N 39°34' E 002°38'0 0.0
2014-Jul-29 00:32N 39°34' E 002°38'0 0.0
2014-Jul-28 23:32N 39°34' E 002°38'0 0.0
2014-Jul-28 22:31N 39°34' E 002°38'0 0.0
2014-Jul-28 21:31N 39°34' E 002°38'0 0.0
2014-Jul-28 20:31N 39°34' E 002°38'0 0.0
2014-Jul-28 19:31N 39°34' E 002°38'0 0.0
2014-Jul-28 18:31N 39°34' E 002°38'0 0.0
2014-Jul-28 17:31N 39°34' E 002°38'0 0.0
2014-Jul-28 16:31N 39°34' E 002°38'0 0.0
2014-Jul-28 15:31N 39°34' E 002°38'0 0.0
2014-Jul-28 14:31N 39°34' E 002°38'0 0.0
2014-Jul-28 13:31N 39°34' E 002°38'0 0.0
2014-Jul-28 12:31N 39°34' E 002°38'0 0.0
2014-Jul-28 11:31N 39°34' E 002°38'0 0.0
2014-Jul-28 10:31N 39°34' E 002°38'0 0.0
2014-Jul-28 09:31N 39°34' E 002°38'0 0.0
2014-Jul-28 08:28N 39°34' E 002°38'0 0.0
2014-Jul-28 07:31N 39°34' E 002°38'0 0.0
2014-Jul-28 06:31N 39°34' E 002°38'0 0.0
2014-Jul-28 05:31N 39°34' E 002°38'0 0.0
2014-Jul-28 04:31N 39°34' E 002°38'0 0.0
2014-Jul-28 03:31N 39°34' E 002°38'0 0.0
2014-Jul-28 02:32N 39°34' E 002°38'0 0.0
2014-Jul-28 01:31N 39°34' E 002°38'0 0.0
2014-Jul-28 00:31N 39°34' E 002°38'0 0.0
2014-Jul-27 23:31N 39°34' E 002°38'0 0.0
2014-Jul-27 22:31N 39°34' E 002°38'0 0.0
2014-Jul-27 21:31N 39°34' E 002°38'0 0.0
2014-Jul-27 20:31N 39°34' E 002°38'0 0.0
2014-Jul-27 19:31N 39°34' E 002°38'0 0.0
2014-Jul-27 18:31N 39°34' E 002°38'1 1.1
2014-Jul-27 17:34N 39°33' E 002°39'3 0.4
2014-Jul-27 08:31N 39°32' E 002°35'0 0.0
2014-Jul-27 07:28N 39°32' E 002°35'0 0.0
2014-Jul-27 06:31N 39°32' E 002°35'0 0.0
2014-Jul-27 05:31N 39°32' E 002°35'0 0.0
2014-Jul-27 04:31N 39°32' E 002°35'0 0.0
2014-Jul-27 03:31N 39°32' E 002°35'0 0.0
2014-Jul-27 02:31N 39°32' E 002°35'0 0.0
2014-Jul-27 01:28N 39°32' E 002°35'0 0.0
2014-Jul-27 00:31N 39°32' E 002°35'0 0.0
2014-Jul-26 23:28N 39°32' E 002°35'0 0.0
2014-Jul-26 22:31N 39°32' E 002°35'0 0.0
2014-Jul-26 21:28N 39°32' E 002°35'0 0.0
2014-Jul-26 20:31N 39°32' E 002°35'0 0.3
2014-Jul-26 19:33N 39°32' E 002°35'1110.3
2014-Jul-26 18:27N 39°23' E 002°45'9 9.7
2014-Jul-26 17:33N 39°20' E 002°56'2 2.0
2014-Jul-26 16:22N 39°20' E 002°59'0 0.0
2014-Jul-26 15:34N 39°20' E 002°59'0 0.0
2014-Jul-26 14:33N 39°20' E 002°59'0 0.0
2014-Jul-26 13:33N 39°20' E 002°59'0 0.0
2014-Jul-26 12:33N 39°20' E 002°59'0 0.0
2014-Jul-26 11:33N 39°20' E 002°59'0 0.0
2014-Jul-26 10:33N 39°20' E 002°59'0 0.0
2014-Jul-26 09:33N 39°20' E 002°59'0 0.0
2014-Jul-26 08:33N 39°20' E 002°59'0 0.0
2014-Jul-26 07:33N 39°20' E 002°59'0 0.0
2014-Jul-26 06:33N 39°20' E 002°59'0 0.0
2014-Jul-26 05:33N 39°20' E 002°59'0 0.0
2014-Jul-26 04:33N 39°20' E 002°59'0 0.0
2014-Jul-26 03:33N 39°20' E 002°59'0 0.0
2014-Jul-26 02:33N 39°20' E 002°59'0 0.0
2014-Jul-26 01:34N 39°20' E 002°59'0 0.0
2014-Jul-26 00:33N 39°20' E 002°59'0 0.0
2014-Jul-25 23:33N 39°20' E 002°59'0 0.0
2014-Jul-25 22:33N 39°20' E 002°59'5 5.2
2014-Jul-25 21:33N 39°16' E 003°02'1010.4
2014-Jul-25 20:33N 39°21' E 003°14'27 8.8
2014-Jul-25 17:28N 39°47' E 003°23'3 2.3
2014-Jul-25 16:10N 39°46' E 003°19'0 0.0
2014-Jul-25 15:22N 39°46' E 003°19'0 0.0
2014-Jul-25 14:10N 39°46' E 003°19'0 0.0
2014-Jul-25 13:16N 39°46' E 003°19'0 0.0
2014-Jul-25 10:28N 39°46' E 003°19'0 0.0
2014-Jul-25 09:22N 39°46' E 003°19'0 0.2
2014-Jul-25 08:25N 39°46' E 003°19'9 4.4
2014-Jul-25 06:24N 39°55' E 003°18'910.5
2014-Jul-25 05:33N 39°57' E 003°30'1010.0
2014-Jul-25 04:33N 39°59' E 003°42'5 1.1
2014-Jul-25 00:15N 39°60' E 003°48'0 0.0
2014-Jul-24 22:32N 39°60' E 003°48'23 0.6
2014-Jul-23 10:18N 39°53' E 004°17'55 1.5
2014-Jul-21 22:25N 39°19' E 003°20'8 9.4
2014-Jul-21 21:33N 39°16' E 003°10'1010.1
2014-Jul-21 20:33N 39°16' E 002°57'312.2
2014-Jul-21 20:17N 39°17' E 002°54'911.6
2014-Jul-21 19:33N 39°22' E 002°44'1212.1
2014-Jul-21 18:33N 39°33' E 002°38'1 0.8
2014-Jul-21 17:33N 39°34' E 002°38'0 0.0
2014-Jul-21 16:33N 39°34' E 002°38'0 0.0
2014-Jul-21 15:33N 39°34' E 002°38'0 0.0
2014-Jul-21 14:33N 39°34' E 002°38'0 0.0
2014-Jul-21 13:33N 39°34' E 002°38'0 0.0
2014-Jul-21 12:33N 39°34' E 002°38'0 0.0
2014-Jul-21 11:33N 39°34' E 002°38'0 0.0
2014-Jul-21 10:33N 39°34' E 002°38'  
Track history (hours):
 
Tides and Currents Weather Stations Pressure Air Temp Water Temp Dewpoint Dewpoint Depression Visibility Wind Speed Wind Dir Waves Ship Positions

Blue Vision

Last reported at 2014-Jul-31 10:27 UTC. Time now 2014-Jul-31 11:38 UTC.
Position N 38°46' E 001°26'.

Length 45 m; draft 3 m.

Type: Pleasure craft. MMSI: 235054475.

Date/timePositionNaut miles runAvg speedWind from/ knotsBaromVisibWave heightAir tempDewpointWater temp
2014-Jul-31 10:27N 38°46' E 001°26'9 0.5
2014-Jul-30 17:30N 38°55' E 001°28'9 8.4
2014-Jul-30 16:26N 38°46' E 001°26'24 1.5
2014-Jul-30 00:31N 39°04' E 001°46'1111.9
2014-Jul-29 23:33N 39°12' E 001°57'1211.9
2014-Jul-29 22:33N 39°20' E 002°08'1211.7
2014-Jul-29 21:33N 39°28' E 002°20'6 2.0
2014-Jul-29 18:30N 39°32' E 002°25'0 0.0
2014-Jul-29 17:24N 39°32' E 002°25'0 0.0
2014-Jul-29 16:24N 39°32' E 002°25'0 0.0
2014-Jul-29 14:18N 39°32' E 002°25'0 0.0
2014-Jul-29 10:21N 39°32' E 002°25'7 9.2
2014-Jul-29 09:33N 39°28' E 002°33'7 6.4
2014-Jul-29 08:31N 39°33' E 002°39'3 3.5
2014-Jul-29 07:34N 39°31' E 002°42'4 4.2
2014-Jul-29 06:33N 39°34' E 002°38'0 0.2
2014-Jul-29 05:32N 39°34' E 002°38'0 0.0
2014-Jul-29 04:32N 39°34' E 002°38'0 0.0
2014-Jul-29 03:32N 39°34' E 002°38'0 0.0
2014-Jul-29 02:32N 39°34' E 002°38'0 0.0
2014-Jul-29 01:31N 39°34' E 002°38'0 0.0
2014-Jul-29 00:32N 39°34' E 002°38'0 0.0
2014-Jul-28 23:32N 39°34' E 002°38'0 0.0
2014-Jul-28 22:31N 39°34' E 002°38'0 0.0
2014-Jul-28 21:31N 39°34' E 002°38'0 0.0
2014-Jul-28 20:31N 39°34' E 002°38'0 0.0
2014-Jul-28 19:31N 39°34' E 002°38'0 0.0
2014-Jul-28 18:31N 39°34' E 002°38'0 0.0
2014-Jul-28 17:31N 39°34' E 002°38'0 0.0
2014-Jul-28 16:31N 39°34' E 002°38'0 0.0
2014-Jul-28 15:31N 39°34' E 002°38'0 0.0
2014-Jul-28 14:31N 39°34' E 002°38'0 0.0
2014-Jul-28 13:31N 39°34' E 002°38'0 0.0
2014-Jul-28 12:31N 39°34' E 002°38'0 0.0
2014-Jul-28 11:31N 39°34' E 002°38'0 0.0
2014-Jul-28 10:31N 39°34' E 002°38'0 0.0
2014-Jul-28 09:31N 39°34' E 002°38'0 0.0
2014-Jul-28 08:28N 39°34' E 002°38'0 0.0
2014-Jul-28 07:31N 39°34' E 002°38'0 0.0
2014-Jul-28 06:31N 39°34' E 002°38'0 0.0
2014-Jul-28 05:31N 39°34' E 002°38'0 0.0
2014-Jul-28 04:31N 39°34' E 002°38'0 0.0
2014-Jul-28 03:31N 39°34' E 002°38'0 0.0
2014-Jul-28 02:32N 39°34' E 002°38'0 0.0
2014-Jul-28 01:31N 39°34' E 002°38'0 0.0
2014-Jul-28 00:31N 39°34' E 002°38'0 0.0
2014-Jul-27 23:31N 39°34' E 002°38'0 0.0
2014-Jul-27 22:31N 39°34' E 002°38'0 0.0
2014-Jul-27 21:31N 39°34' E 002°38'0 0.0
2014-Jul-27 20:31N 39°34' E 002°38'0 0.0
2014-Jul-27 19:31N 39°34' E 002°38'0 0.0
2014-Jul-27 18:31N 39°34' E 002°38'1 1.1
2014-Jul-27 17:34N 39°33' E 002°39'3 0.4
2014-Jul-27 08:31N 39°32' E 002°35'0 0.0
2014-Jul-27 07:28N 39°32' E 002°35'0 0.0
2014-Jul-27 06:31N 39°32' E 002°35'0 0.0
2014-Jul-27 05:31N 39°32' E 002°35'0 0.0
2014-Jul-27 04:31N 39°32' E 002°35'0 0.0
2014-Jul-27 03:31N 39°32' E 002°35'0 0.0
2014-Jul-27 02:31N 39°32' E 002°35'0 0.0
2014-Jul-27 01:28N 39°32' E 002°35'0 0.0
2014-Jul-27 00:31N 39°32' E 002°35'0 0.0
2014-Jul-26 23:28N 39°32' E 002°35'0 0.0
2014-Jul-26 22:31N 39°32' E 002°35'0 0.0
2014-Jul-26 21:28N 39°32' E 002°35'0 0.0
2014-Jul-26 20:31N 39°32' E 002°35'0 0.3
2014-Jul-26 19:33N 39°32' E 002°35'1110.3
2014-Jul-26 18:27N 39°23' E 002°45'9 9.7
2014-Jul-26 17:33N 39°20' E 002°56'2 2.0
2014-Jul-26 16:22N 39°20' E 002°59'0 0.0
2014-Jul-26 15:34N 39°20' E 002°59'0 0.0
2014-Jul-26 14:33N 39°20' E 002°59'0 0.0
2014-Jul-26 13:33N 39°20' E 002°59'0 0.0
2014-Jul-26 12:33N 39°20' E 002°59'0 0.0
2014-Jul-26 11:33N 39°20' E 002°59'0 0.0
2014-Jul-26 10:33N 39°20' E 002°59'0 0.0
2014-Jul-26 09:33N 39°20' E 002°59'0 0.0
2014-Jul-26 08:33N 39°20' E 002°59'0 0.0
2014-Jul-26 07:33N 39°20' E 002°59'0 0.0
2014-Jul-26 06:33N 39°20' E 002°59'0 0.0
2014-Jul-26 05:33N 39°20' E 002°59'0 0.0
2014-Jul-26 04:33N 39°20' E 002°59'0 0.0
2014-Jul-26 03:33N 39°20' E 002°59'0 0.0
2014-Jul-26 02:33N 39°20' E 002°59'0 0.0
2014-Jul-26 01:34N 39°20' E 002°59'0 0.0
2014-Jul-26 00:33N 39°20' E 002°59'0 0.0
2014-Jul-25 23:33N 39°20' E 002°59'0 0.0
2014-Jul-25 22:33N 39°20' E 002°59'5 5.2
2014-Jul-25 21:33N 39°16' E 003°02'1010.4
2014-Jul-25 20:33N 39°21' E 003°14'27 8.8
2014-Jul-25 17:28N 39°47' E 003°23'3 2.3
2014-Jul-25 16:10N 39°46' E 003°19'0 0.0
2014-Jul-25 15:22N 39°46' E 003°19'0 0.0
2014-Jul-25 14:10N 39°46' E 003°19'0 0.0
2014-Jul-25 13:16N 39°46' E 003°19'0 0.0
2014-Jul-25 10:28N 39°46' E 003°19'0 0.0
2014-Jul-25 09:22N 39°46' E 003°19'0 0.2
2014-Jul-25 08:25N 39°46' E 003°19'9 4.4
2014-Jul-25 06:24N 39°55' E 003°18'910.5
2014-Jul-25 05:33N 39°57' E 003°30'1010.0
2014-Jul-25 04:33N 39°59' E 003°42'5 1.1
2014-Jul-25 00:15N 39°60' E 003°48'0 0.0
2014-Jul-24 22:32N 39°60' E 003°48'23 0.6
2014-Jul-23 10:18N 39°53' E 004°17'55 1.5
2014-Jul-21 22:25N 39°19' E 003°20'8 9.4
2014-Jul-21 21:33N 39°16' E 003°10'1010.1
2014-Jul-21 20:33N 39°16' E 002°57'312.2
2014-Jul-21 20:17N 39°17' E 002°54'911.6
2014-Jul-21 19:33N 39°22' E 002°44'1212.1
2014-Jul-21 18:33N 39°33' E 002°38'1 0.8
2014-Jul-21 17:33N 39°34' E 002°38'0 0.0
2014-Jul-21 16:33N 39°34' E 002°38'0 0.0
2014-Jul-21 15:33N 39°34' E 002°38'0 0.0
2014-Jul-21 14:33N 39°34' E 002°38'0 0.0
2014-Jul-21 13:33N 39°34' E 002°38'0 0.0
2014-Jul-21 12:33N 39°34' E 002°38'0 0.0
2014-Jul-21 11:33N 39°34' E 002°38'0 0.0
2014-Jul-21 10:33N 39°34' E 002°38'  

Dump ship's entire track history